sensor_id;sensor_type;location;lat;lon;timestamp;temperature;humidity
5899;DHT22;2975;50.956;6.962;2023-08-20T00:01:39;20.70;99.90
5899;DHT22;2975;50.956;6.962;2023-08-20T00:04:05;20.70;99.90
5899;DHT22;2975;50.956;6.962;2023-08-20T00:06:31;20.70;99.90
5899;DHT22;2975;50.956;6.962;2023-08-20T00:08:57;20.80;99.90
5899;DHT22;2975;50.956;6.962;2023-08-20T00:11:23;20.80;99.90
5899;DHT22;2975;50.956;6.962;2023-08-20T00:13:48;20.80;99.90
5899;DHT22;2975;50.956;6.962;2023-08-20T00:16:14;20.80;99.90
5899;DHT22;2975;50.956;6.962;2023-08-20T00:18:40;20.90;99.90
5899;DHT22;2975;50.956;6.962;2023-08-20T00:21:07;20.90;99.90
5899;DHT22;2975;50.956;6.962;2023-08-20T00:23:34;20.90;99.90
5899;DHT22;2975;50.956;6.962;2023-08-20T00:25:59;20.90;99.90
5899;DHT22;2975;50.956;6.962;2023-08-20T00:28:25;21.00;99.90
5899;DHT22;2975;50.956;6.962;2023-08-20T00:30:51;21.00;99.90
5899;DHT22;2975;50.956;6.962;2023-08-20T00:33:17;21.00;99.90
5899;DHT22;2975;50.956;6.962;2023-08-20T00:35:43;21.10;99.90
5899;DHT22;2975;50.956;6.962;2023-08-20T00:38:08;21.10;99.90
5899;DHT22;2975;50.956;6.962;2023-08-20T00:40:34;21.10;99.90
5899;DHT22;2975;50.956;6.962;2023-08-20T00:42:59;21.10;99.90
5899;DHT22;2975;50.956;6.962;2023-08-20T00:45:26;21.10;99.90
5899;DHT22;2975;50.956;6.962;2023-08-20T00:47:52;21.10;99.90
5899;DHT22;2975;50.956;6.962;2023-08-20T00:50:18;21.00;99.90
5899;DHT22;2975;50.956;6.962;2023-08-20T00:52:45;20.90;99.90
5899;DHT22;2975;50.956;6.962;2023-08-20T00:55:12;20.90;99.90
5899;DHT22;2975;50.956;6.962;2023-08-20T00:57:41;20.80;99.90
5899;DHT22;2975;50.956;6.962;2023-08-20T01:00:08;20.80;99.90
5899;DHT22;2975;50.956;6.962;2023-08-20T01:02:37;20.70;99.90
5899;DHT22;2975;50.956;6.962;2023-08-20T01:05:05;20.70;99.90
5899;DHT22;2975;50.956;6.962;2023-08-20T01:12:51;20.50;99.90
5899;DHT22;2975;50.956;6.962;2023-08-20T01:15:17;20.50;99.90
5899;DHT22;2975;50.956;6.962;2023-08-20T01:17:43;20.50;99.90
5899;DHT22;2975;50.956;6.962;2023-08-20T01:20:11;20.40;99.90
5899;DHT22;2975;50.956;6.962;2023-08-20T01:22:50;20.40;99.90
5899;DHT22;2975;50.956;6.962;2023-08-20T01:31:05;20.30;99.90
5899;DHT22;2975;50.956;6.962;2023-08-20T01:33:31;20.30;99.90
5899;DHT22;2975;50.956;6.962;2023-08-20T01:35:57;20.30;99.90
5899;DHT22;2975;50.956;6.962;2023-08-20T01:38:23;20.30;99.90
5899;DHT22;2975;50.956;6.962;2023-08-20T01:40:48;20.20;99.90
5899;DHT22;2975;50.956;6.962;2023-08-20T01:43:14;20.20;99.90
5899;DHT22;2975;50.956;6.962;2023-08-20T01:45:40;20.20;99.90
5899;DHT22;2975;50.956;6.962;2023-08-20T01:48:06;20.20;99.90
5899;DHT22;2975;50.956;6.962;2023-08-20T01:50:34;20.10;99.90
5899;DHT22;2975;50.956;6.962;2023-08-20T01:53:00;20.10;99.90
5899;DHT22;2975;50.956;6.962;2023-08-20T01:55:25;20.20;99.90
5899;DHT22;2975;50.956;6.962;2023-08-20T01:57:51;20.20;99.90
5899;DHT22;2975;50.956;6.962;2023-08-20T02:00:17;20.20;99.90
5899;DHT22;2975;50.956;6.962;2023-08-20T02:02:42;20.30;99.90
5899;DHT22;2975;50.956;6.962;2023-08-20T02:05:08;20.30;99.90
5899;DHT22;2975;50.956;6.962;2023-08-20T02:07:35;20.30;99.90
5899;DHT22;2975;50.956;6.962;2023-08-20T02:10:01;20.40;99.90
5899;DHT22;2975;50.956;6.962;2023-08-20T02:12:27;20.40;99.90
5899;DHT22;2975;50.956;6.962;2023-08-20T02:14:53;20.40;99.90
5899;DHT22;2975;50.956;6.962;2023-08-20T02:17:19;20.40;99.90
5899;DHT22;2975;50.956;6.962;2023-08-20T02:19:44;20.40;99.90
5899;DHT22;2975;50.956;6.962;2023-08-20T02:22:10;20.40;99.90
5899;DHT22;2975;50.956;6.962;2023-08-20T02:24:35;20.40;99.90
5899;DHT22;2975;50.956;6.962;2023-08-20T02:27:02;20.30;99.90
5899;DHT22;2975;50.956;6.962;2023-08-20T02:29:28;20.30;99.90
5899;DHT22;2975;50.956;6.962;2023-08-20T02:31:53;20.30;99.90
5899;DHT22;2975;50.956;6.962;2023-08-20T02:34:19;20.30;99.90
5899;DHT22;2975;50.956;6.962;2023-08-20T02:36:45;20.30;99.90
5899;DHT22;2975;50.956;6.962;2023-08-20T02:39:10;20.30;99.90
5899;DHT22;2975;50.956;6.962;2023-08-20T02:41:36;20.20;99.90
5899;DHT22;2975;50.956;6.962;2023-08-20T02:44:02;20.20;99.90
5899;DHT22;2975;50.956;6.962;2023-08-20T02:46:28;20.20;99.90
5899;DHT22;2975;50.956;6.962;2023-08-20T02:48:54;20.10;99.90
5899;DHT22;2975;50.956;6.962;2023-08-20T02:51:19;20.10;99.90
5899;DHT22;2975;50.956;6.962;2023-08-20T02:53:45;20.10;99.90
5899;DHT22;2975;50.956;6.962;2023-08-20T02:56:11;20.10;99.90
5899;DHT22;2975;50.956;6.962;2023-08-20T02:58:36;20.20;99.90
5899;DHT22;2975;50.956;6.962;2023-08-20T03:01:02;20.20;99.90
5899;DHT22;2975;50.956;6.962;2023-08-20T03:03:28;20.20;99.90
5899;DHT22;2975;50.956;6.962;2023-08-20T03:05:53;20.20;99.90
5899;DHT22;2975;50.956;6.962;2023-08-20T03:08:19;20.20;99.90
5899;DHT22;2975;50.956;6.962;2023-08-20T03:10:45;20.20;99.90
5899;DHT22;2975;50.956;6.962;2023-08-20T03:13:10;20.10;99.90
5899;DHT22;2975;50.956;6.962;2023-08-20T03:15:36;20.10;99.90
5899;DHT22;2975;50.956;6.962;2023-08-20T03:18:02;20.10;99.90
5899;DHT22;2975;50.956;6.962;2023-08-20T03:20:28;20.10;99.90
5899;DHT22;2975;50.956;6.962;2023-08-20T03:22:56;20.10;99.90
5899;DHT22;2975;50.956;6.962;2023-08-20T03:25:22;20.10;99.90
5899;DHT22;2975;50.956;6.962;2023-08-20T03:27:47;20.00;99.90
5899;DHT22;2975;50.956;6.962;2023-08-20T03:30:13;20.00;99.90
5899;DHT22;2975;50.956;6.962;2023-08-20T03:32:39;19.90;99.90
5899;DHT22;2975;50.956;6.962;2023-08-20T03:35:05;19.90;99.90
5899;DHT22;2975;50.956;6.962;2023-08-20T03:37:30;19.80;99.90
5899;DHT22;2975;50.956;6.962;2023-08-20T03:39:56;19.80;99.90
5899;DHT22;2975;50.956;6.962;2023-08-20T03:42:21;19.80;99.90
5899;DHT22;2975;50.956;6.962;2023-08-20T03:44:47;19.80;99.90
5899;DHT22;2975;50.956;6.962;2023-08-20T03:47:13;19.70;99.90
5899;DHT22;2975;50.956;6.962;2023-08-20T03:49:38;19.70;99.90
5899;DHT22;2975;50.956;6.962;2023-08-20T03:52:04;19.60;99.90
5899;DHT22;2975;50.956;6.962;2023-08-20T03:54:32;19.60;99.90
5899;DHT22;2975;50.956;6.962;2023-08-20T03:56:58;19.60;99.90
5899;DHT22;2975;50.956;6.962;2023-08-20T03:59:23;19.70;99.90
5899;DHT22;2975;50.956;6.962;2023-08-20T04:01:49;19.70;99.90
5899;DHT22;2975;50.956;6.962;2023-08-20T04:04:14;19.70;99.90
5899;DHT22;2975;50.956;6.962;2023-08-20T04:06:40;19.70;99.90
5899;DHT22;2975;50.956;6.962;2023-08-20T04:09:06;19.80;99.90
5899;DHT22;2975;50.956;6.962;2023-08-20T04:11:32;19.80;99.90
5899;DHT22;2975;50.956;6.962;2023-08-20T04:13:58;19.80;99.90
5899;DHT22;2975;50.956;6.962;2023-08-20T04:16:24;19.90;99.90
5899;DHT22;2975;50.956;6.962;2023-08-20T04:18:49;19.90;99.90
5899;DHT22;2975;50.956;6.962;2023-08-20T04:21:15;19.90;99.90
5899;DHT22;2975;50.956;6.962;2023-08-20T04:23:40;19.90;99.90
5899;DHT22;2975;50.956;6.962;2023-08-20T04:26:07;19.90;99.90
5899;DHT22;2975;50.956;6.962;2023-08-20T04:28:33;19.90;99.90
5899;DHT22;2975;50.956;6.962;2023-08-20T04:30:58;19.90;99.90
5899;DHT22;2975;50.956;6.962;2023-08-20T04:33:26;19.90;99.90
5899;DHT22;2975;50.956;6.962;2023-08-20T04:35:52;19.80;99.90
5899;DHT22;2975;50.956;6.962;2023-08-20T04:38:17;19.80;99.90
5899;DHT22;2975;50.956;6.962;2023-08-20T04:40:46;19.80;99.90
5899;DHT22;2975;50.956;6.962;2023-08-20T04:43:13;19.80;99.90
5899;DHT22;2975;50.956;6.962;2023-08-20T04:45:39;19.80;99.90
5899;DHT22;2975;50.956;6.962;2023-08-20T04:48:04;19.80;99.90
5899;DHT22;2975;50.956;6.962;2023-08-20T04:50:30;19.80;99.90
5899;DHT22;2975;50.956;6.962;2023-08-20T04:52:55;19.90;99.90
5899;DHT22;2975;50.956;6.962;2023-08-20T04:55:21;19.90;99.90
5899;DHT22;2975;50.956;6.962;2023-08-20T04:57:47;20.00;99.90
5899;DHT22;2975;50.956;6.962;2023-08-20T05:00:12;20.00;99.90
5899;DHT22;2975;50.956;6.962;2023-08-20T05:02:38;20.00;99.90
5899;DHT22;2975;50.956;6.962;2023-08-20T05:05:04;20.10;99.90
5899;DHT22;2975;50.956;6.962;2023-08-20T05:07:30;20.10;99.90
5899;DHT22;2975;50.956;6.962;2023-08-20T05:09:55;20.10;99.90
5899;DHT22;2975;50.956;6.962;2023-08-20T05:12:21;20.20;99.90
5899;DHT22;2975;50.956;6.962;2023-08-20T05:14:46;20.20;99.90
5899;DHT22;2975;50.956;6.962;2023-08-20T05:17:12;20.20;99.90
5899;DHT22;2975;50.956;6.962;2023-08-20T05:19:39;20.40;99.90
5899;DHT22;2975;50.956;6.962;2023-08-20T05:22:04;20.60;99.90
5899;DHT22;2975;50.956;6.962;2023-08-20T05:24:30;20.90;99.90
5899;DHT22;2975;50.956;6.962;2023-08-20T05:27:08;21.20;99.90
5899;DHT22;2975;50.956;6.962;2023-08-20T05:29:34;21.70;99.90
5899;DHT22;2975;50.956;6.962;2023-08-20T05:32:00;22.60;99.90
5899;DHT22;2975;50.956;6.962;2023-08-20T05:34:26;23.40;99.90
5899;DHT22;2975;50.956;6.962;2023-08-20T05:36:51;24.20;99.90
5899;DHT22;2975;50.956;6.962;2023-08-20T05:39:17;24.70;99.90
5899;DHT22;2975;50.956;6.962;2023-08-20T05:41:42;24.60;99.90
5899;DHT22;2975;50.956;6.962;2023-08-20T05:44:09;24.60;99.90
5899;DHT22;2975;50.956;6.962;2023-08-20T05:46:34;24.70;99.90
5899;DHT22;2975;50.956;6.962;2023-08-20T05:49:00;25.00;99.90
5899;DHT22;2975;50.956;6.962;2023-08-20T05:51:26;25.50;99.90
5899;DHT22;2975;50.956;6.962;2023-08-20T05:53:51;26.10;99.90
5899;DHT22;2975;50.956;6.962;2023-08-20T05:56:17;26.60;99.90
5899;DHT22;2975;50.956;6.962;2023-08-20T05:58:43;27.10;99.90
5899;DHT22;2975;50.956;6.962;2023-08-20T06:01:08;27.90;99.90
5899;DHT22;2975;50.956;6.962;2023-08-20T06:03:34;28.30;99.90
5899;DHT22;2975;50.956;6.962;2023-08-20T06:05:59;28.70;99.90
5899;DHT22;2975;50.956;6.962;2023-08-20T06:08:25;28.90;99.90
5899;DHT22;2975;50.956;6.962;2023-08-20T06:10:51;28.80;99.90
5899;DHT22;2975;50.956;6.962;2023-08-20T06:13:16;28.70;99.90
5899;DHT22;2975;50.956;6.962;2023-08-20T06:15:42;28.80;99.90
5899;DHT22;2975;50.956;6.962;2023-08-20T06:18:07;29.20;99.90
5899;DHT22;2975;50.956;6.962;2023-08-20T06:20:33;28.90;99.90
5899;DHT22;2975;50.956;6.962;2023-08-20T06:22:59;27.70;99.90
5899;DHT22;2975;50.956;6.962;2023-08-20T06:25:24;26.90;99.90
5899;DHT22;2975;50.956;6.962;2023-08-20T06:27:50;26.10;99.90
5899;DHT22;2975;50.956;6.962;2023-08-20T06:30:15;25.50;99.90
5899;DHT22;2975;50.956;6.962;2023-08-20T06:32:42;25.30;99.90
5899;DHT22;2975;50.956;6.962;2023-08-20T06:35:08;25.00;99.90
5899;DHT22;2975;50.956;6.962;2023-08-20T06:37:35;24.80;99.90
5899;DHT22;2975;50.956;6.962;2023-08-20T06:40:01;24.90;99.90
5899;DHT22;2975;50.956;6.962;2023-08-20T06:42:26;25.10;99.90
5899;DHT22;2975;50.956;6.962;2023-08-20T06:44:52;25.10;99.90
5899;DHT22;2975;50.956;6.962;2023-08-20T06:47:17;24.90;99.90
5899;DHT22;2975;50.956;6.962;2023-08-20T06:49:43;24.70;99.90
5899;DHT22;2975;50.956;6.962;2023-08-20T06:52:08;24.70;99.90
5899;DHT22;2975;50.956;6.962;2023-08-20T06:54:34;24.90;99.90
5899;DHT22;2975;50.956;6.962;2023-08-20T06:57:00;25.00;99.90
5899;DHT22;2975;50.956;6.962;2023-08-20T06:59:26;25.10;99.90
5899;DHT22;2975;50.956;6.962;2023-08-20T07:01:53;25.10;99.90
5899;DHT22;2975;50.956;6.962;2023-08-20T07:04:19;24.90;99.90
5899;DHT22;2975;50.956;6.962;2023-08-20T07:06:44;25.00;99.90
5899;DHT22;2975;50.956;6.962;2023-08-20T07:09:10;25.10;99.90
5899;DHT22;2975;50.956;6.962;2023-08-20T07:11:35;25.30;99.90
5899;DHT22;2975;50.956;6.962;2023-08-20T07:14:01;25.30;99.90
5899;DHT22;2975;50.956;6.962;2023-08-20T07:16:27;25.10;99.90
5899;DHT22;2975;50.956;6.962;2023-08-20T07:18:52;25.00;99.90
5899;DHT22;2975;50.956;6.962;2023-08-20T07:21:18;25.10;99.90
5899;DHT22;2975;50.956;6.962;2023-08-20T07:23:44;25.10;99.90
5899;DHT22;2975;50.956;6.962;2023-08-20T07:26:11;25.10;99.90
5899;DHT22;2975;50.956;6.962;2023-08-20T07:28:40;25.10;99.90
5899;DHT22;2975;50.956;6.962;2023-08-20T07:31:22;25.20;99.90
5899;DHT22;2975;50.956;6.962;2023-08-20T07:33:48;25.40;99.90
5899;DHT22;2975;50.956;6.962;2023-08-20T07:36:15;25.10;99.90
5899;DHT22;2975;50.956;6.962;2023-08-20T07:38:42;25.00;99.90
5899;DHT22;2975;50.956;6.962;2023-08-20T07:41:09;25.00;99.90
5899;DHT22;2975;50.956;6.962;2023-08-20T07:43:34;25.10;99.90
5899;DHT22;2975;50.956;6.962;2023-08-20T07:46:00;25.00;99.90
5899;DHT22;2975;50.956;6.962;2023-08-20T07:48:26;24.90;99.90
5899;DHT22;2975;50.956;6.962;2023-08-20T07:50:51;25.00;99.90
5899;DHT22;2975;50.956;6.962;2023-08-20T07:53:17;24.90;99.90
5899;DHT22;2975;50.956;6.962;2023-08-20T07:55:44;25.10;99.90
5899;DHT22;2975;50.956;6.962;2023-08-20T07:58:09;25.20;99.90
5899;DHT22;2975;50.956;6.962;2023-08-20T08:00:35;25.10;99.90
5899;DHT22;2975;50.956;6.962;2023-08-20T08:03:00;25.10;99.90
5899;DHT22;2975;50.956;6.962;2023-08-20T08:05:26;25.00;99.90
5899;DHT22;2975;50.956;6.962;2023-08-20T08:07:52;25.00;99.90
5899;DHT22;2975;50.956;6.962;2023-08-20T08:10:17;24.70;99.90
5899;DHT22;2975;50.956;6.962;2023-08-20T08:12:43;24.70;99.90
5899;DHT22;2975;50.956;6.962;2023-08-20T08:15:08;24.80;99.90
5899;DHT22;2975;50.956;6.962;2023-08-20T08:17:34;24.80;99.90
5899;DHT22;2975;50.956;6.962;2023-08-20T08:20:00;24.90;99.90
5899;DHT22;2975;50.956;6.962;2023-08-20T08:22:25;25.10;99.90
5899;DHT22;2975;50.956;6.962;2023-08-20T08:24:51;25.20;99.90
5899;DHT22;2975;50.956;6.962;2023-08-20T08:27:16;25.40;99.90
5899;DHT22;2975;50.956;6.962;2023-08-20T08:29:42;25.30;99.90
5899;DHT22;2975;50.956;6.962;2023-08-20T08:32:09;25.20;99.90
5899;DHT22;2975;50.956;6.962;2023-08-20T08:34:35;25.20;99.90
5899;DHT22;2975;50.956;6.962;2023-08-20T08:37:01;25.30;99.90
5899;DHT22;2975;50.956;6.962;2023-08-20T08:39:26;25.40;99.90
5899;DHT22;2975;50.956;6.962;2023-08-20T08:41:55;25.40;99.90
5899;DHT22;2975;50.956;6.962;2023-08-20T08:44:24;25.40;99.90
5899;DHT22;2975;50.956;6.962;2023-08-20T08:46:50;25.50;99.90
5899;DHT22;2975;50.956;6.962;2023-08-20T08:49:16;25.70;99.90
5899;DHT22;2975;50.956;6.962;2023-08-20T08:51:44;25.70;99.90
5899;DHT22;2975;50.956;6.962;2023-08-20T08:54:12;25.70;99.90
5899;DHT22;2975;50.956;6.962;2023-08-20T08:56:39;25.50;99.90
5899;DHT22;2975;50.956;6.962;2023-08-20T08:59:05;25.40;99.90
5899;DHT22;2975;50.956;6.962;2023-08-20T09:01:30;25.30;99.90
5899;DHT22;2975;50.956;6.962;2023-08-20T09:03:57;25.30;99.90
5899;DHT22;2975;50.956;6.962;2023-08-20T09:06:22;25.40;99.90
5899;DHT22;2975;50.956;6.962;2023-08-20T09:08:48;25.50;99.90
5899;DHT22;2975;50.956;6.962;2023-08-20T09:11:13;25.60;99.90
5899;DHT22;2975;50.956;6.962;2023-08-20T09:13:42;25.80;99.90
5899;DHT22;2975;50.956;6.962;2023-08-20T09:16:10;26.00;99.90
5899;DHT22;2975;50.956;6.962;2023-08-20T09:18:40;26.20;99.90
5899;DHT22;2975;50.956;6.962;2023-08-20T09:21:07;26.20;99.90
5899;DHT22;2975;50.956;6.962;2023-08-20T09:23:34;26.30;99.90
5899;DHT22;2975;50.956;6.962;2023-08-20T09:26:02;26.50;99.90
5899;DHT22;2975;50.956;6.962;2023-08-20T09:28:29;26.60;99.90
5899;DHT22;2975;50.956;6.962;2023-08-20T09:30:59;26.60;99.90
5899;DHT22;2975;50.956;6.962;2023-08-20T09:33:27;26.80;99.90
5899;DHT22;2975;50.956;6.962;2023-08-20T09:35:53;26.60;99.90
5899;DHT22;2975;50.956;6.962;2023-08-20T09:38:23;26.50;99.90
5899;DHT22;2975;50.956;6.962;2023-08-20T09:40:53;26.70;99.90
5899;DHT22;2975;50.956;6.962;2023-08-20T09:43:23;26.80;99.90
5899;DHT22;2975;50.956;6.962;2023-08-20T09:45:55;27.00;99.90
5899;DHT22;2975;50.956;6.962;2023-08-20T09:48:21;27.30;99.90
5899;DHT22;2975;50.956;6.962;2023-08-20T09:50:51;27.60;99.90
5899;DHT22;2975;50.956;6.962;2023-08-20T09:53:27;27.60;99.90
5899;DHT22;2975;50.956;6.962;2023-08-20T09:55:58;27.70;99.90
5899;DHT22;2975;50.956;6.962;2023-08-20T09:58:27;27.80;99.90
5899;DHT22;2975;50.956;6.962;2023-08-20T10:00:53;27.90;99.90
5899;DHT22;2975;50.956;6.962;2023-08-20T10:03:20;27.50;99.90
5899;DHT22;2975;50.956;6.962;2023-08-20T10:05:48;27.40;99.90
5899;DHT22;2975;50.956;6.962;2023-08-20T10:08:15;27.30;99.90
5899;DHT22;2975;50.956;6.962;2023-08-20T10:10:40;27.20;99.90
5899;DHT22;2975;50.956;6.962;2023-08-20T10:13:07;27.30;99.90
5899;DHT22;2975;50.956;6.962;2023-08-20T10:15:33;27.30;99.90
5899;DHT22;2975;50.956;6.962;2023-08-20T10:18:01;27.20;99.90
5899;DHT22;2975;50.956;6.962;2023-08-20T10:20:29;27.20;99.90
5899;DHT22;2975;50.956;6.962;2023-08-20T10:23:00;27.40;99.90
5899;DHT22;2975;50.956;6.962;2023-08-20T10:25:26;27.60;99.90
5899;DHT22;2975;50.956;6.962;2023-08-20T10:27:53;27.90;99.90
5899;DHT22;2975;50.956;6.962;2023-08-20T10:30:25;28.30;99.30
5899;DHT22;2975;50.956;6.962;2023-08-20T10:32:52;28.20;99.80
5899;DHT22;2975;50.956;6.962;2023-08-20T10:35:25;28.30;99.70
5899;DHT22;2975;50.956;6.962;2023-08-20T10:40:56;28.30;98.60
5899;DHT22;2975;50.956;6.962;2023-08-20T10:43:37;28.20;98.90
5899;DHT22;2975;50.956;6.962;2023-08-20T10:46:14;28.20;98.60
5899;DHT22;2975;50.956;6.962;2023-08-20T10:48:53;28.30;98.60
5899;DHT22;2975;50.956;6.962;2023-08-20T10:51:36;28.70;98.20
5899;DHT22;2975;50.956;6.962;2023-08-20T10:54:06;28.80;97.10
5899;DHT22;2975;50.956;6.962;2023-08-20T10:56:39;28.90;96.20
5899;DHT22;2975;50.956;6.962;2023-08-20T10:59:07;29.10;96.00
5899;DHT22;2975;50.956;6.962;2023-08-20T11:01:34;28.90;96.60
5899;DHT22;2975;50.956;6.962;2023-08-20T11:04:00;28.70;96.70
5899;DHT22;2975;50.956;6.962;2023-08-20T11:06:31;28.40;97.40
5899;DHT22;2975;50.956;6.962;2023-08-20T11:09:01;28.30;97.20
5899;DHT22;2975;50.956;6.962;2023-08-20T11:11:29;28.20;97.70
5899;DHT22;2975;50.956;6.962;2023-08-20T11:13:55;28.00;98.40
5899;DHT22;2975;50.956;6.962;2023-08-20T11:16:20;28.00;98.40
5899;DHT22;2975;50.956;6.962;2023-08-20T11:18:46;28.10;98.40
5899;DHT22;2975;50.956;6.962;2023-08-20T11:21:13;28.40;97.90
5899;DHT22;2975;50.956;6.962;2023-08-20T11:23:38;28.60;96.80
5899;DHT22;2975;50.956;6.962;2023-08-20T11:26:07;28.60;97.00
5899;DHT22;2975;50.956;6.962;2023-08-20T11:28:33;28.50;96.80
5899;DHT22;2975;50.956;6.962;2023-08-20T11:31:01;28.60;97.30
5899;DHT22;2975;50.956;6.962;2023-08-20T11:33:26;28.90;96.40
5899;DHT22;2975;50.956;6.962;2023-08-20T11:35:52;29.00;96.30
5899;DHT22;2975;50.956;6.962;2023-08-20T11:38:21;28.90;95.90
5899;DHT22;2975;50.956;6.962;2023-08-20T11:40:47;28.60;96.30
5899;DHT22;2975;50.956;6.962;2023-08-20T11:43:12;28.40;96.70
5899;DHT22;2975;50.956;6.962;2023-08-20T11:45:45;28.20;96.50
5899;DHT22;2975;50.956;6.962;2023-08-20T11:48:11;28.10;96.60
5899;DHT22;2975;50.956;6.962;2023-08-20T11:50:37;28.10;97.30
5899;DHT22;2975;50.956;6.962;2023-08-20T11:53:03;27.90;97.10
5899;DHT22;2975;50.956;6.962;2023-08-20T11:55:29;27.80;97.10
5899;DHT22;2975;50.956;6.962;2023-08-20T11:57:55;27.60;97.80
5899;DHT22;2975;50.956;6.962;2023-08-20T12:00:25;27.60;98.00
5899;DHT22;2975;50.956;6.962;2023-08-20T12:02:54;28.00;98.10
5899;DHT22;2975;50.956;6.962;2023-08-20T12:05:27;28.30;97.20
5899;DHT22;2975;50.956;6.962;2023-08-20T12:10:23;28.80;96.30
5899;DHT22;2975;50.956;6.962;2023-08-20T12:12:49;29.00;96.10
5899;DHT22;2975;50.956;6.962;2023-08-20T12:15:14;28.80;95.70
5899;DHT22;2975;50.956;6.962;2023-08-20T12:17:40;28.40;96.70
5899;DHT22;2975;50.956;6.962;2023-08-20T12:20:06;28.30;97.10
5899;DHT22;2975;50.956;6.962;2023-08-20T12:22:40;28.50;97.00
5899;DHT22;2975;50.956;6.962;2023-08-20T12:25:06;28.80;96.00
5899;DHT22;2975;50.956;6.962;2023-08-20T12:27:33;28.90;96.10
5899;DHT22;2975;50.956;6.962;2023-08-20T12:29:58;28.90;96.30
5899;DHT22;2975;50.956;6.962;2023-08-20T12:32:24;29.00;95.70
5899;DHT22;2975;50.956;6.962;2023-08-20T12:34:50;29.00;95.70
5899;DHT22;2975;50.956;6.962;2023-08-20T12:37:15;29.30;94.90
5899;DHT22;2975;50.956;6.962;2023-08-20T12:39:41;29.60;94.50
5899;DHT22;2975;50.956;6.962;2023-08-20T12:42:06;29.70;93.70
5899;DHT22;2975;50.956;6.962;2023-08-20T12:44:33;29.50;94.20
5899;DHT22;2975;50.956;6.962;2023-08-20T12:46:59;29.50;93.30
5899;DHT22;2975;50.956;6.962;2023-08-20T12:49:24;29.40;93.90
5899;DHT22;2975;50.956;6.962;2023-08-20T12:51:50;29.40;93.80
5899;DHT22;2975;50.956;6.962;2023-08-20T12:54:15;29.20;94.50
5899;DHT22;2975;50.956;6.962;2023-08-20T12:56:42;29.20;94.70
5899;DHT22;2975;50.956;6.962;2023-08-20T12:59:07;29.40;93.90
5899;DHT22;2975;50.956;6.962;2023-08-20T13:01:33;29.40;93.50
5899;DHT22;2975;50.956;6.962;2023-08-20T13:03:59;29.40;93.10
5899;DHT22;2975;50.956;6.962;2023-08-20T13:06:25;29.60;93.10
5899;DHT22;2975;50.956;6.962;2023-08-20T13:08:51;29.20;94.20
5899;DHT22;2975;50.956;6.962;2023-08-20T13:11:17;29.20;94.50
5899;DHT22;2975;50.956;6.962;2023-08-20T13:13:45;29.40;94.10
5899;DHT22;2975;50.956;6.962;2023-08-20T13:16:11;29.30;94.00
5899;DHT22;2975;50.956;6.962;2023-08-20T13:18:37;29.10;94.70
5899;DHT22;2975;50.956;6.962;2023-08-20T13:21:03;29.10;93.60
5899;DHT22;2975;50.956;6.962;2023-08-20T13:23:29;28.90;94.00
5899;DHT22;2975;50.956;6.962;2023-08-20T13:25:55;28.70;94.60
5899;DHT22;2975;50.956;6.962;2023-08-20T13:28:21;28.60;95.00
5899;DHT22;2975;50.956;6.962;2023-08-20T13:30:46;28.50;94.00
5899;DHT22;2975;50.956;6.962;2023-08-20T13:33:13;28.30;94.10
5899;DHT22;2975;50.956;6.962;2023-08-20T13:35:40;28.30;94.20
5899;DHT22;2975;50.956;6.962;2023-08-20T13:38:06;28.30;93.90
5899;DHT22;2975;50.956;6.962;2023-08-20T13:40:32;28.40;94.10
5899;DHT22;2975;50.956;6.962;2023-08-20T13:42:57;28.40;94.30
5899;DHT22;2975;50.956;6.962;2023-08-20T13:45:23;28.60;95.30
5899;DHT22;2975;50.956;6.962;2023-08-20T13:47:48;28.70;93.80
5899;DHT22;2975;50.956;6.962;2023-08-20T13:50:14;28.80;93.50
5899;DHT22;2975;50.956;6.962;2023-08-20T13:52:40;29.10;93.70
5899;DHT22;2975;50.956;6.962;2023-08-20T13:55:06;29.00;93.40
5899;DHT22;2975;50.956;6.962;2023-08-20T13:57:31;28.80;92.90
5899;DHT22;2975;50.956;6.962;2023-08-20T13:59:57;28.60;93.10
5899;DHT22;2975;50.956;6.962;2023-08-20T14:02:24;28.50;93.80
5899;DHT22;2975;50.956;6.962;2023-08-20T14:04:49;28.30;94.00
5899;DHT22;2975;50.956;6.962;2023-08-20T14:07:15;28.30;94.50
5899;DHT22;2975;50.956;6.962;2023-08-20T14:09:40;28.30;94.20
5899;DHT22;2975;50.956;6.962;2023-08-20T14:12:07;28.40;94.90
5899;DHT22;2975;50.956;6.962;2023-08-20T14:14:32;28.60;94.60
5899;DHT22;2975;50.956;6.962;2023-08-20T14:16:58;28.90;94.80
5899;DHT22;2975;50.956;6.962;2023-08-20T14:19:24;29.00;93.10
5899;DHT22;2975;50.956;6.962;2023-08-20T14:21:49;29.00;92.90
5899;DHT22;2975;50.956;6.962;2023-08-20T14:24:15;29.10;92.80
5899;DHT22;2975;50.956;6.962;2023-08-20T14:26:40;29.10;92.80
5899;DHT22;2975;50.956;6.962;2023-08-20T14:29:06;29.20;92.50
5899;DHT22;2975;50.956;6.962;2023-08-20T14:31:31;29.50;92.20
5899;DHT22;2975;50.956;6.962;2023-08-20T14:33:57;29.60;92.30
5899;DHT22;2975;50.956;6.962;2023-08-20T14:36:22;29.50;92.40
5899;DHT22;2975;50.956;6.962;2023-08-20T14:38:48;29.40;92.60
5899;DHT22;2975;50.956;6.962;2023-08-20T14:41:14;29.20;93.30
5899;DHT22;2975;50.956;6.962;2023-08-20T14:43:39;29.20;93.40
5899;DHT22;2975;50.956;6.962;2023-08-20T14:46:07;29.20;94.00
5899;DHT22;2975;50.956;6.962;2023-08-20T14:48:32;29.10;93.60
5899;DHT22;2975;50.956;6.962;2023-08-20T14:51:00;28.90;93.60
5899;DHT22;2975;50.956;6.962;2023-08-20T14:53:26;28.70;93.10
5899;DHT22;2975;50.956;6.962;2023-08-20T14:55:51;28.60;93.00
5899;DHT22;2975;50.956;6.962;2023-08-20T14:58:17;28.60;93.00
5899;DHT22;2975;50.956;6.962;2023-08-20T15:00:42;28.60;93.10
5899;DHT22;2975;50.956;6.962;2023-08-20T15:03:08;28.60;93.70
5899;DHT22;2975;50.956;6.962;2023-08-20T15:05:33;28.80;93.00
5899;DHT22;2975;50.956;6.962;2023-08-20T15:07:59;28.70;93.40
5899;DHT22;2975;50.956;6.962;2023-08-20T15:10:26;28.70;93.50
5899;DHT22;2975;50.956;6.962;2023-08-20T15:12:52;28.60;93.70
5899;DHT22;2975;50.956;6.962;2023-08-20T15:15:17;28.60;94.60
5899;DHT22;2975;50.956;6.962;2023-08-20T15:17:43;28.60;94.20
5899;DHT22;2975;50.956;6.962;2023-08-20T15:20:09;28.50;94.20
5899;DHT22;2975;50.956;6.962;2023-08-20T15:22:36;28.50;94.10
5899;DHT22;2975;50.956;6.962;2023-08-20T15:25:02;28.50;94.10
5899;DHT22;2975;50.956;6.962;2023-08-20T15:27:29;28.40;93.90
5899;DHT22;2975;50.956;6.962;2023-08-20T15:29:55;28.50;93.60
5899;DHT22;2975;50.956;6.962;2023-08-20T15:32:20;28.40;93.60
5899;DHT22;2975;50.956;6.962;2023-08-20T15:34:46;28.30;93.60
5899;DHT22;2975;50.956;6.962;2023-08-20T15:37:12;28.30;93.40
5899;DHT22;2975;50.956;6.962;2023-08-20T15:39:39;28.30;93.80
5899;DHT22;2975;50.956;6.962;2023-08-20T15:42:05;28.30;93.50
5899;DHT22;2975;50.956;6.962;2023-08-20T15:44:30;28.40;94.10
5899;DHT22;2975;50.956;6.962;2023-08-20T15:46:56;28.40;93.90
5899;DHT22;2975;50.956;6.962;2023-08-20T15:49:22;28.30;94.00
5899;DHT22;2975;50.956;6.962;2023-08-20T15:51:47;28.20;94.20
5899;DHT22;2975;50.956;6.962;2023-08-20T15:54:15;28.30;94.10
5899;DHT22;2975;50.956;6.962;2023-08-20T15:56:40;28.20;93.70
5899;DHT22;2975;50.956;6.962;2023-08-20T15:59:07;28.40;93.70
5899;DHT22;2975;50.956;6.962;2023-08-20T16:01:32;28.50;93.80
5899;DHT22;2975;50.956;6.962;2023-08-20T16:03:58;28.60;93.60
5899;DHT22;2975;50.956;6.962;2023-08-20T16:06:24;28.50;93.30
5899;DHT22;2975;50.956;6.962;2023-08-20T16:08:50;28.40;93.70
5899;DHT22;2975;50.956;6.962;2023-08-20T16:11:15;28.40;93.70
5899;DHT22;2975;50.956;6.962;2023-08-20T16:13:42;28.30;93.30